Time;durP1;ratioP1;P1;durP2;ratioP2;P2;SDS_P1;SDS_P2;PMS_P1;PMS_P2;Temp;Humidity;BMP_temperature;BMP_pressure;BME280_temperature;BME280_humidity;BME280_pressure;Samples;Min_cycle;Max_cycle;Signal;HPM_P1;HPM_P2
2022/09/14 00:01:42;;;;;;;5.27;1.37;;;;;;;14.59;78.15;100078.09;5030739;28;20229;-82
2022/09/14 00:04:14;;;;;;;3.80;1.17;;;;;;;14.56;78.21;100076.53;5024167;28;20203;-82
2022/09/14 00:06:41;;;;;;;2.17;1.23;;;;;;;14.50;77.93;100077.09;5029424;28;20210;-81
2022/09/14 00:09:10;;;;;;;2.80;1.37;;;;;;;14.45;78.08;100065.94;5028420;28;20202;-82
2022/09/14 00:11:37;;;;;;;1.70;1.10;;;;;;;14.41;77.89;100066.34;5029205;28;20234;-82
2022/09/14 00:14:05;;;;;;;2.67;1.10;;;;;;;14.38;78.05;100059.38;5028712;28;20582;-82
2022/09/14 00:16:34;;;;;;;4.30;1.67;;;;;;;14.37;78.58;100056.84;5035991;28;20206;-82
2022/09/14 00:19:04;;;;;;;3.50;1.40;;;;;;;14.35;78.59;100062.31;5029905;28;20383;-82
2022/09/14 00:21:33;;;;;;;1.73;0.93;;;;;;;14.31;78.28;100068.97;5030604;28;20698;-83
2022/09/14 00:24:00;;;;;;;3.13;1.23;;;;;;;14.25;77.98;100058.78;5033139;28;20224;-83
2022/09/14 00:26:26;;;;;;;4.57;1.40;;;;;;;14.21;78.26;100057.34;5029779;28;20206;-83
2022/09/14 00:28:54;;;;;;;3.93;1.30;;;;;;;14.16;78.42;100048.84;5026734;28;20230;-83
2022/09/14 00:31:22;;;;;;;7.20;1.70;;;;;;;14.14;78.65;100048.16;5029735;28;20230;-83
2022/09/14 00:33:50;;;;;;;5.30;1.23;;;;;;;14.13;78.79;100043.78;5031145;28;20206;-82
2022/09/14 00:36:19;;;;;;;3.47;1.20;;;;;;;14.10;78.73;100044.91;5032247;28;20210;-83
2022/09/14 00:38:47;;;;;;;7.77;1.27;;;;;;;14.04;78.79;100034.72;5032366;28;20608;-82
2022/09/14 00:41:16;;;;;;;4.10;1.37;;;;;;;13.99;79.06;100033.41;5034792;28;20225;-82
2022/09/14 00:43:54;;;;;;;6.37;1.23;;;;;;;13.96;79.14;100041.75;5032657;28;20202;-82
2022/09/14 00:46:21;;;;;;;3.13;1.13;;;;;;;13.94;79.72;100033.00;5026071;28;20594;-82
2022/09/14 00:48:48;;;;;;;6.57;1.77;;;;;;;13.92;79.83;100027.78;5032799;28;20226;-82
2022/09/14 00:51:17;;;;;;;4.17;1.90;;;;;;;13.92;79.67;100029.59;5033688;28;21067;-82
2022/09/14 00:53:44;;;;;;;4.67;1.47;;;;;;;13.90;79.83;100035.09;5031601;28;20213;-82
2022/09/14 00:56:13;;;;;;;2.03;1.10;;;;;;;13.89;80.40;100036.06;5033844;28;20585;-83
2022/09/14 00:58:39;;;;;;;5.20;1.70;;;;;;;13.89;80.19;100036.06;5033045;28;20202;-82
2022/09/14 01:01:08;;;;;;;4.33;2.23;;;;;;;13.89;80.26;100036.06;5031185;28;20229;-82
2022/09/14 01:03:34;;;;;;;2.83;1.57;;;;;;;13.88;80.13;100023.66;5028240;28;20198;-82
2022/09/14 01:06:08;;;;;;;4.17;1.63;;;;;;;13.84;80.79;100020.41;5033137;28;20202;-82
2022/09/14 01:08:53;;;;;;;5.43;1.87;;;;;;;13.80;80.65;100016.28;5027967;28;20226;-82
2022/09/14 01:11:43;;;;;;;4.00;1.47;;;;;;;13.77;80.89;100021.06;5031923;28;20230;-82
2022/09/14 01:14:16;;;;;;;5.97;1.60;;;;;;;13.73;81.25;100020.50;5031884;28;20240;-81
2022/09/14 01:17:34;;;;;;;7.90;1.60;;;;;;;13.72;81.34;100023.28;5035402;28;20268;-82
2022/09/14 01:20:15;;;;;;;4.30;1.53;;;;;;;13.72;81.77;100023.28;5037876;28;20198;-83
2022/09/14 01:22:49;;;;;;;5.07;1.53;;;;;;;13.72;81.94;100028.66;5031645;28;20206;-82
2022/09/14 01:25:28;;;;;;;3.23;1.40;;;;;;;13.72;81.77;100028.66;5029460;28;20214;-82
2022/09/14 01:28:01;;;;;;;8.03;2.13;;;;;;;13.72;81.68;100028.66;5032461;28;20598;-82
2022/09/14 01:30:32;;;;;;;4.73;1.73;;;;;;;13.74;82.15;100026.69;5032237;28;20703;-83
2022/09/14 01:33:04;;;;;;;5.30;1.67;;;;;;;13.72;81.92;100020.63;5032364;28;20206;-82
2022/09/14 01:35:33;;;;;;;1.97;1.60;;;;;;;13.70;81.55;100014.53;5026745;28;20198;-83
2022/09/14 01:38:03;;;;;;;5.17;1.70;;;;;;;13.66;81.96;100021.13;5029510;28;20209;-82
2022/09/14 01:40:33;;;;;;;5.57;1.90;;;;;;;13.63;81.67;100016.88;5033207;28;20723;-82
2022/09/14 01:43:07;;;;;;;4.83;1.70;;;;;;;13.60;82.13;100016.34;5033100;28;20201;-82
2022/09/14 01:45:37;;;;;;;7.77;1.90;;;;;;;13.57;82.36;100019.25;5031847;28;20201;-82
2022/09/14 01:48:07;;;;;;;7.27;2.27;;;;;;;13.54;82.45;100009.66;5032384;28;20257;-82
2022/09/14 01:50:40;;;;;;;3.87;1.30;;;;;;;13.52;82.47;100001.78;5024704;28;20222;-82
2022/09/14 01:53:11;;;;;;;5.60;1.63;;;;;;;13.50;82.74;100010.91;5031782;28;20202;-82
2022/09/14 01:55:44;;;;;;;3.70;1.80;;;;;;;13.50;82.42;100013.56;5027152;28;20211;-82
2022/09/14 01:58:17;;;;;;;4.17;1.47;;;;;;;13.47;82.90;100003.97;5031883;28;20673;-82
2022/09/14 02:00:46;;;;;;;3.77;1.63;;;;;;;13.46;82.58;100004.13;5028083;28;20230;-82
2022/09/14 02:03:15;;;;;;;2.17;1.30;;;;;;;13.45;82.67;99992.56;5031753;28;20206;-82
2022/09/14 02:05:49;;;;;;;4.60;1.37;;;;;;;13.44;82.94;99990.88;5033337;28;20213;-83
2022/09/14 02:08:16;;;;;;;5.37;2.10;;;;;;;13.43;82.82;99994.56;5032711;28;20214;-82
2022/09/14 02:10:43;;;;;;;4.63;1.80;;;;;;;13.43;83.25;99991.03;5031584;28;20241;-82
2022/09/14 02:13:09;;;;;;;2.87;1.60;;;;;;;13.42;82.74;99998.19;5030200;28;20203;-82
2022/09/14 02:15:38;;;;;;;4.50;1.83;;;;;;;13.41;83.18;100003.69;5031389;28;20229;-82
2022/09/14 02:18:05;;;;;;;2.47;1.53;;;;;;;13.40;82.81;99996.63;5030702;28;20209;-83
2022/09/14 02:20:47;;;;;;;3.37;1.77;;;;;;;13.40;83.16;99996.63;5031757;28;20241;-82
2022/09/14 02:23:14;;;;;;;4.27;1.77;;;;;;;13.38;83.64;99994.09;5029313;28;20252;-82
2022/09/14 02:25:40;;;;;;;4.27;1.57;;;;;;;13.38;83.71;100001.25;5033185;28;20576;-83
2022/09/14 02:28:07;;;;;;;2.30;1.60;;;;;;;13.39;83.26;99994.94;5029327;28;20221;-83
2022/09/14 02:30:43;;;;;;;4.80;1.87;;;;;;;13.40;83.87;100004.66;5037485;28;20322;-83
2022/09/14 02:33:16;;;;;;;3.47;1.70;;;;;;;13.39;83.78;100002.97;5030484;28;20228;-82
2022/09/14 02:35:48;;;;;;;3.87;1.40;;;;;;;13.40;83.62;99996.63;5031234;28;20727;-85
2022/09/14 02:38:28;;;;;;;6.30;1.43;;;;;;;13.39;83.40;99994.94;5034423;28;20194;-83
2022/09/14 02:41:02;;;;;;;3.93;1.37;;;;;;;13.36;83.65;99989.84;5032958;28;20963;-84
2022/09/14 02:43:38;;;;;;;2.93;1.40;;;;;;;13.31;83.32;99992.06;5028320;28;20784;-83
2022/09/14 02:46:16;;;;;;;3.97;1.50;;;;;;;13.25;83.33;99989.91;5031462;28;20855;-83
2022/09/14 02:48:51;;;;;;;3.83;1.70;;;;;;;13.19;83.35;99978.75;5026227;28;20599;-83
2022/09/14 02:51:27;;;;;;;4.77;1.80;;;;;;;13.15;83.17;99988.00;5033330;28;20614;-82
2022/09/14 02:54:00;;;;;;;7.60;2.00;;;;;;;13.12;83.17;99974.00;5030148;28;20198;-82
2022/09/14 02:56:28;;;;;;;3.13;1.70;;;;;;;13.08;83.39;99978.75;5041744;28;20198;-83
2022/09/14 02:58:55;;;;;;;8.30;2.50;;;;;;;13.07;83.68;99977.09;5031523;28;20202;-84
2022/09/14 03:01:24;;;;;;;2.67;2.03;;;;;;;13.07;83.98;99981.59;5031687;28;20222;-84
2022/09/14 03:03:50;;;;;;;5.80;2.03;;;;;;;13.05;84.44;99973.69;5031208;28;20206;-81
2022/09/14 03:06:17;;;;;;;2.80;1.63;;;;;;;13.06;84.43;99979.91;5032781;28;20210;-82
2022/09/14 03:08:44;;;;;;;3.43;1.73;;;;;;;13.06;84.98;99983.41;5030376;28;20226;-82
2022/09/14 03:11:11;;;;;;;4.37;1.60;;;;;;;13.07;84.68;99979.78;5030676;28;20246;-82
2022/09/14 03:13:37;;;;;;;3.80;1.80;;;;;;;13.07;84.97;99977.09;5031769;28;20210;-82
2022/09/14 03:16:05;;;;;;;4.23;1.73;;;;;;;13.08;84.76;99976.09;5030688;28;20208;-82
2022/09/14 03:18:33;;;;;;;3.20;1.47;;;;;;;13.07;85.03;99974.44;5030457;28;20608;-82
2022/09/14 03:21:04;;;;;;;3.53;1.63;;;;;;;13.07;84.86;99974.44;5030624;28;20226;-82
2022/09/14 03:23:34;;;;;;;4.67;1.60;;;;;;;13.06;85.07;99962.03;5029489;28;20667;-83
2022/09/14 03:26:01;;;;;;;4.83;1.50;;;;;;;13.05;85.00;99954.13;5029895;28;20806;-84
2022/09/14 03:28:27;;;;;;;2.97;1.63;;;;;;;13.01;84.78;99950.88;5031271;28;20226;-84
2022/09/14 03:30:54;;;;;;;2.80;1.40;;;;;;;12.98;84.68;99959.16;5029257;28;20222;-82
2022/09/14 03:33:20;;;;;;;4.00;1.80;;;;;;;12.97;84.71;99962.78;5030395;28;20210;-83
2022/09/14 03:35:48;;;;;;;2.70;1.50;;;;;;;12.93;84.24;99956.00;5032483;28;20209;-83
2022/09/14 03:38:14;;;;;;;4.43;1.17;;;;;;;12.90;83.99;99950.91;5031174;28;20206;-82
2022/09/14 03:40:41;;;;;;;4.87;1.30;;;;;;;12.87;84.03;99945.84;5030606;28;20593;-82
2022/09/14 03:43:07;;;;;;;5.07;1.93;;;;;;;12.85;84.25;99937.09;5029384;28;20206;-83
2022/09/14 03:45:36;;;;;;;8.43;1.70;;;;;;;12.83;84.21;99937.22;5030555;28;20241;-82
2022/09/14 03:48:04;;;;;;;3.67;1.47;;;;;;;12.82;84.34;99935.53;5027989;28;20233;-82
2022/09/14 03:50:30;;;;;;;4.43;1.53;;;;;;;12.81;84.47;99936.50;5029992;28;20236;-83
2022/09/14 03:52:58;;;;;;;2.90;1.40;;;;;;;12.80;84.71;99939.31;5030934;28;20206;-85
2022/09/14 03:55:25;;;;;;;3.77;1.40;;;;;;;12.78;84.58;99942.09;5031986;28;20254;-84
2022/09/14 03:57:53;;;;;;;3.33;1.23;;;;;;;12.77;84.77;99924.38;5030741;28;20213;-83
2022/09/14 04:00:20;;;;;;;4.13;1.57;;;;;;;12.77;85.11;99908.34;5031267;28;20569;-83
2022/09/14 04:02:46;;;;;;;4.50;1.60;;;;;;;12.77;84.77;99911.03;5030589;28;20209;-83
2022/09/14 04:05:13;;;;;;;3.90;1.70;;;;;;;12.76;85.23;99916.50;5030922;28;20202;-82
2022/09/14 04:07:39;;;;;;;5.73;1.93;;;;;;;12.73;84.87;99922.09;5031182;28;20217;-83
2022/09/14 04:10:08;;;;;;;3.37;1.30;;;;;;;12.70;84.71;99917.03;5030691;28;20236;-82
2022/09/14 04:12:35;;;;;;;4.27;1.40;;;;;;;12.68;84.99;99905.63;5029422;28;20244;-83
2022/09/14 04:15:02;;;;;;;3.53;1.30;;;;;;;12.67;85.14;99911.94;5031006;28;20214;-82
2022/09/14 04:17:29;;;;;;;2.13;1.10;;;;;;;12.64;85.06;99915.69;5036512;28;20209;-83
2022/09/14 04:19:55;;;;;;;4.07;1.27;;;;;;;12.64;85.50;99914.84;5036411;28;20212;-81
2022/09/14 04:22:22;;;;;;;4.53;1.70;;;;;;;12.63;84.75;99913.16;5033681;28;20247;-82
2022/09/14 04:24:49;;;;;;;2.37;1.23;;;;;;;12.61;85.47;99912.44;5028911;28;20230;-83
2022/09/14 04:27:16;;;;;;;5.50;1.23;;;;;;;12.57;85.43;99910.97;5034228;28;20214;-82
2022/09/14 04:29:43;;;;;;;6.07;1.40;;;;;;;12.53;85.15;99926.44;5030914;28;20235;-82
2022/09/14 04:32:09;;;;;;;4.40;1.40;;;;;;;12.48;85.21;99923.28;5038655;28;20225;-82
2022/09/14 04:34:36;;;;;;;5.77;1.80;;;;;;;12.46;85.09;99926.09;5042759;28;20212;-82
2022/09/14 04:37:03;;;;;;;2.40;1.20;;;;;;;12.43;85.59;99915.66;5035441;28;20213;-83
2022/09/14 04:39:29;;;;;;;2.83;1.50;;;;;;;12.43;85.81;99920.16;5037881;28;20205;-83
2022/09/14 04:41:56;;;;;;;3.23;1.60;;;;;;;12.41;85.49;99914.94;5033902;28;20236;-82
2022/09/14 04:44:24;;;;;;;3.13;1.60;;;;;;;12.41;86.11;99928.28;5033089;28;20213;-84
2022/09/14 04:46:50;;;;;;;4.67;1.90;;;;;;;12.42;86.35;99921.97;5033428;28;20209;-84
2022/09/14 04:49:17;;;;;;;4.67;1.90;;;;;;;12.42;86.35;99918.44;5035384;28;20230;-84
2022/09/14 04:51:44;;;;;;;4.00;1.83;;;;;;;12.42;86.67;99918.44;5036224;28;20237;-83
2022/09/14 04:54:14;;;;;;;3.90;1.77;;;;;;;12.41;86.74;99924.75;5033374;28;20236;-84
2022/09/14 04:56:41;;;;;;;6.07;1.73;;;;;;;12.41;86.56;99919.44;5036411;28;20206;-83
2022/09/14 04:59:07;;;;;;;3.73;1.60;;;;;;;12.40;86.47;99920.41;5034406;28;20208;-83
2022/09/14 05:01:38;;;;;;;8.77;3.10;;;;;;;12.39;86.56;99924.88;5034427;28;20228;-84
2022/09/14 05:04:06;;;;;;;5.40;2.10;;;;;;;12.37;86.78;99912.63;5030461;28;20209;-82
2022/09/14 05:06:34;;;;;;;4.43;1.80;;;;;;;12.34;86.70;99905.75;5031683;28;20207;-83
2022/09/14 05:09:03;;;;;;;6.67;1.90;;;;;;;12.33;87.02;99912.06;5041120;28;20578;-83
2022/09/14 05:11:33;;;;;;;3.10;1.50;;;;;;;12.33;87.03;99916.56;5039966;28;20225;-83
2022/09/14 05:14:01;;;;;;;4.73;1.60;;;;;;;12.33;87.38;99913.88;5039342;28;20213;-83
2022/09/14 05:16:29;;;;;;;5.43;1.60;;;;;;;12.34;87.35;99919.09;5035882;28;20209;-82
2022/09/14 05:19:00;;;;;;;4.83;1.90;;;;;;;12.36;87.72;99929.66;5033642;28;20209;-82
2022/09/14 05:21:26;;;;;;;8.17;3.10;;;;;;;12.38;87.99;99925.84;5033773;28;20730;-82
2022/09/14 05:23:54;;;;;;;8.40;2.47;;;;;;;12.41;88.00;99930.09;5035283;28;20285;-83
2022/09/14 05:26:21;;;;;;;6.07;1.63;;;;;;;12.40;88.10;99926.59;5040952;28;20207;-84
2022/09/14 05:28:50;;;;;;;4.57;1.53;;;;;;;12.42;88.27;99934.47;5036805;28;20226;-84
2022/09/14 05:31:17;;;;;;;6.50;1.90;;;;;;;12.43;88.09;99918.31;5038180;28;20240;-84
2022/09/14 05:33:43;;;;;;;3.13;1.30;;;;;;;12.46;88.16;99919.91;5040661;28;20206;-84
2022/09/14 05:36:11;;;;;;;4.53;1.40;;;;;;;12.47;88.47;99922.44;5038564;28;20206;-83
2022/09/14 05:38:39;;;;;;;4.83;1.40;;;;;;;12.47;88.39;99922.44;5035652;28;20220;-84
2022/09/14 05:41:07;;;;;;;9.93;2.33;;;;;;;12.48;88.28;99924.16;5035015;28;20226;-84
2022/09/14 05:43:35;;;;;;;5.60;1.93;;;;;;;12.49;87.96;99925.84;5036283;28;20201;-83
2022/09/14 05:46:02;;;;;;;5.50;2.00;;;;;;;12.50;88.19;99919.53;5039276;28;20202;-82
2022/09/14 05:48:31;;;;;;;4.63;2.07;;;;;;;12.49;87.91;99925.84;5039667;28;20213;-83
2022/09/14 05:50:59;;;;;;;5.63;3.00;;;;;;;12.50;88.06;99918.69;5033813;28;20222;-83
2022/09/14 05:53:27;;;;;;;8.00;4.90;;;;;;;12.51;88.27;99917.72;5035396;28;20206;-83
2022/09/14 05:55:59;;;;;;;7.73;3.07;;;;;;;12.55;88.08;99920.94;5039924;28;20216;-84
2022/09/14 05:58:26;;;;;;;4.77;2.50;;;;;;;12.58;88.35;99910.00;5036759;28;20209;-84
2022/09/14 06:00:52;;;;;;;5.40;2.53;;;;;;;12.62;88.54;99911.47;5036895;28;20231;-82
2022/09/14 06:03:19;;;;;;;4.83;2.87;;;;;;;12.65;88.36;99908.53;5035034;28;20202;-84
2022/09/14 06:05:45;;;;;;;3.53;2.70;;;;;;;12.68;88.38;99910.97;5037775;28;20719;-83
2022/09/14 06:08:12;;;;;;;4.77;2.27;;;;;;;12.69;88.46;99899.28;5033705;28;20583;-82
2022/09/14 06:10:40;;;;;;;5.20;1.80;;;;;;;12.71;88.14;99900.03;5032525;28;20688;-85
2022/09/14 06:13:06;;;;;;;2.87;2.07;;;;;;;12.72;88.73;99899.03;5033632;28;20224;-84
2022/09/14 06:15:33;;;;;;;4.50;2.33;;;;;;;12.72;88.50;99891.03;5033881;28;20733;-83
2022/09/14 06:18:00;;;;;;;5.90;2.50;;;;;;;12.75;88.59;99899.59;5035361;28;20551;-83
2022/09/14 06:20:26;;;;;;;3.60;1.90;;;;;;;12.77;88.73;99902.16;5035519;28;20222;-82
2022/09/14 06:22:53;;;;;;;6.23;1.97;;;;;;;12.78;89.00;99901.19;5031696;28;20206;-81
2022/09/14 06:25:19;;;;;;;5.23;2.10;;;;;;;12.81;89.01;99900.94;5034814;28;20237;-83
2022/09/14 06:27:47;;;;;;;3.00;1.70;;;;;;;12.86;89.31;99898.72;5037420;28;20217;-83
2022/09/14 06:30:15;;;;;;;3.53;1.70;;;;;;;12.89;89.66;99898.47;5035432;28;20226;-82
2022/09/14 06:32:41;;;;;;;4.47;2.00;;;;;;;12.93;89.42;99891.84;5030719;28;20256;-83
2022/09/14 06:35:09;;;;;;;3.27;2.10;;;;;;;12.97;89.72;99897.78;5034665;28;20572;-84
2022/09/14 06:37:35;;;;;;;6.07;2.50;;;;;;;13.00;89.77;99895.72;5029141;28;20209;-82
2022/09/14 06:40:03;;;;;;;5.97;2.73;;;;;;;13.05;89.81;99890.00;5034300;28;20199;-82
2022/09/14 06:42:30;;;;;;;7.53;2.83;;;;;;;13.09;89.61;99886.03;5031860;28;20226;-83
2022/09/14 06:44:58;;;;;;;4.07;2.23;;;;;;;13.13;89.53;99887.47;5033930;28;20209;-82
2022/09/14 06:47:24;;;;;;;4.23;2.30;;;;;;;13.16;89.50;99892.59;5039312;28;20642;-83
2022/09/14 06:49:51;;;;;;;4.80;2.10;;;;;;;13.21;89.85;99895.75;5033471;28;20225;-83
2022/09/14 06:52:18;;;;;;;3.27;1.90;;;;;;;13.24;89.53;99889.28;5038699;28;20226;-82
2022/09/14 06:54:45;;;;;;;6.43;2.50;;;;;;;13.29;89.53;99885.22;5034753;28;20210;-82
2022/09/14 06:57:12;;;;;;;4.77;1.83;;;;;;;13.34;89.71;99882.16;5028770;28;20295;-83
2022/09/14 06:59:38;;;;;;;5.57;2.37;;;;;;;13.40;89.96;99889.66;5032960;28;20213;-83
2022/09/14 07:02:06;;;;;;;4.97;2.27;;;;;;;13.45;89.95;99892.75;5028216;28;20304;-82
2022/09/14 07:04:32;;;;;;;5.30;2.43;;;;;;;13.48;89.79;99893.31;5031725;28;20202;-82
2022/09/14 07:06:59;;;;;;;4.00;2.43;;;;;;;13.52;89.35;99892.09;5028999;28;20206;-82
2022/09/14 07:09:25;;;;;;;7.10;2.90;;;;;;;13.55;89.36;99889.16;5032359;28;20834;-82
2022/09/14 07:11:53;;;;;;;3.43;2.20;;;;;;;13.61;89.28;99897.63;5031155;28;20225;-82
2022/09/14 07:14:19;;;;;;;6.23;2.87;;;;;;;13.67;89.37;99891.72;5027358;28;20198;-83
2022/09/14 07:16:46;;;;;;;5.70;2.80;;;;;;;13.73;89.48;99896.53;5037781;28;20241;-81
2022/09/14 07:19:15;;;;;;;5.50;2.63;;;;;;;13.79;88.90;99912.06;5026622;28;20198;-83
2022/09/14 07:21:42;;;;;;;6.47;2.63;;;;;;;13.83;89.40;99908.97;5030026;28;20222;-82
2022/09/14 07:24:10;;;;;;;4.60;2.57;;;;;;;13.88;88.79;99916.59;5030194;28;20224;-82
2022/09/14 07:26:40;;;;;;;4.63;2.40;;;;;;;13.95;88.86;99901.69;5029040;28;20600;-83
2022/09/14 07:29:10;;;;;;;4.67;3.03;;;;;;;14.01;88.92;99905.63;5030123;28;20260;-83
2022/09/14 07:31:39;;;;;;;6.73;2.90;;;;;;;14.08;88.95;99899.59;5031345;28;20352;-84
2022/09/14 07:34:06;;;;;;;4.93;2.70;;;;;;;14.14;88.44;99904.41;5031762;28;20607;-84
2022/09/14 07:36:36;;;;;;;6.33;2.83;;;;;;;14.20;88.93;99894.97;5030296;28;20201;-82
2022/09/14 07:39:04;;;;;;;5.57;2.53;;;;;;;14.27;88.72;99898.78;5033472;28;20841;-84
2022/09/14 07:41:32;;;;;;;4.97;2.43;;;;;;;14.33;88.09;99898.22;5029842;28;20224;-84
2022/09/14 07:44:00;;;;;;;5.93;2.20;;;;;;;14.38;87.99;99900.47;5032160;28;20194;-82
2022/09/14 07:46:28;;;;;;;6.80;2.70;;;;;;;14.42;87.36;99893.91;5032000;28;20198;-82
2022/09/14 07:48:56;;;;;;;7.73;3.13;;;;;;;14.44;86.50;99887.41;5034040;28;20214;-81
2022/09/14 07:51:23;;;;;;;4.80;2.20;;;;;;;14.48;86.85;99883.47;5026920;28;20898;-82
2022/09/14 07:53:51;;;;;;;10.20;2.70;;;;;;;14.52;86.30;99890.22;5029686;28;20210;-82
2022/09/14 07:56:18;;;;;;;7.50;2.70;;;;;;;14.55;86.11;99892.63;5030016;28;20210;-83
2022/09/14 07:58:45;;;;;;;5.60;2.70;;;;;;;14.59;85.58;99894.03;5030811;28;20214;-83
2022/09/14 08:01:13;;;;;;;6.10;2.47;;;;;;;14.64;85.24;99895.47;5032700;28;20248;-82
2022/09/14 08:03:41;;;;;;;6.00;2.43;;;;;;;14.66;85.20;99882.78;5031639;28;20224;-83
2022/09/14 08:06:10;;;;;;;4.23;2.00;;;;;;;14.70;84.67;99879.63;5030791;28;20206;-85
2022/09/14 08:08:39;;;;;;;6.50;1.97;;;;;;;14.74;84.71;99880.22;5031743;28;20203;-84
2022/09/14 08:11:09;;;;;;;6.70;1.60;;;;;;;14.78;83.95;99885.16;5029541;28;20692;-83
2022/09/14 08:13:37;;;;;;;7.40;1.60;;;;;;;14.83;83.26;99890.94;5024208;28;20268;-83
2022/09/14 08:16:04;;;;;;;7.53;1.50;;;;;;;14.89;82.60;99890.34;5033670;28;20226;-83
2022/09/14 08:18:32;;;;;;;3.77;1.30;;;;;;;14.97;81.84;99894.16;5028004;28;20571;-84
2022/09/14 08:21:04;;;;;;;5.53;1.80;;;;;;;15.06;81.33;99894.13;5031246;28;20230;-83
2022/09/14 08:23:30;;;;;;;6.83;1.90;;;;;;;15.13;80.28;99889.88;5028701;28;20202;-84
2022/09/14 08:26:02;;;;;;;6.57;1.77;;;;;;;15.20;79.79;99884.81;5029900;28;20210;-85
2022/09/14 08:28:29;;;;;;;8.00;2.33;;;;;;;15.28;79.34;99893.81;5029579;28;20195;-84
2022/09/14 08:31:01;;;;;;;6.97;2.10;;;;;;;15.38;78.68;99892.94;5029081;28;20239;-83
2022/09/14 08:33:27;;;;;;;5.37;2.10;;;;;;;15.48;78.86;99886.53;5028107;28;20207;-84
2022/09/14 08:35:54;;;;;;;4.83;2.07;;;;;;;15.58;78.34;99890.06;5029330;28;20679;-85
2022/09/14 08:38:20;;;;;;;8.13;2.00;;;;;;;15.69;77.54;99885.50;5028551;28;20215;-83
2022/09/14 08:40:46;;;;;;;3.83;1.47;;;;;;;15.79;77.35;99884.44;5030089;28;20224;-84
2022/09/14 08:43:14;;;;;;;8.43;2.37;;;;;;;15.92;77.00;99884.13;5031425;28;20238;-83
2022/09/14 08:45:43;;;;;;;5.93;2.37;;;;;;;16.03;76.48;99875.00;5027131;28;20212;-84
2022/09/14 08:48:20;;;;;;;7.63;2.27;;;;;;;16.09;75.75;99880.63;5029636;28;20219;-85
2022/09/14 08:50:46;;;;;;;6.53;2.10;;;;;;;16.16;75.62;99891.59;5034052;28;20239;-84
2022/09/14 08:53:13;;;;;;;7.00;1.93;;;;;;;16.24;75.26;99891.69;5031570;28;20652;-83
2022/09/14 08:55:44;;;;;;;7.10;2.10;;;;;;;16.31;74.99;99888.22;5027944;28;20203;-83
2022/09/14 08:58:24;;;;;;;4.97;1.67;;;;;;;16.42;74.69;99878.28;5039600;28;20574;-83
2022/09/14 09:00:57;;;;;;;5.30;1.57;;;;;;;16.53;74.35;99872.66;5034186;28;20239;-83
2022/09/14 09:03:52;;;;;;;5.37;1.60;;;;;;;16.69;74.12;99877.34;5033783;28;20208;-83
2022/09/14 09:06:24;;;;;;;6.87;1.33;;;;;;;16.83;73.60;99874.13;5040120;28;20204;-84
2022/09/14 09:09:02;;;;;;;7.57;1.67;;;;;;;16.98;73.18;99867.19;5035488;28;20204;-84
2022/09/14 09:11:39;;;;;;;4.43;1.37;;;;;;;17.13;72.48;99865.63;5031233;28;20236;-84
2022/09/14 09:14:14;;;;;;;6.13;1.70;;;;;;;17.27;71.51;99856.94;5033424;28;20203;-83
2022/09/14 09:16:46;;;;;;;5.10;1.80;;;;;;;17.37;70.71;99853.31;5028947;28;20210;-84
2022/09/14 09:19:19;;;;;;;5.50;1.93;;;;;;;17.43;70.13;99850.81;5034269;28;20214;-85
2022/09/14 09:21:48;;;;;;;7.53;1.93;;;;;;;17.49;69.38;99857.41;5034552;28;20223;-84
2022/09/14 09:24:22;;;;;;;7.60;2.07;;;;;;;17.57;69.38;99854.75;5029490;28;20210;-83
2022/09/14 09:26:49;;;;;;;4.37;1.50;;;;;;;17.70;69.36;99852.50;5030228;28;20220;-84
2022/09/14 09:29:15;;;;;;;8.13;1.80;;;;;;;17.82;69.08;99840.41;5030337;28;20270;-84
2022/09/14 09:31:48;;;;;;;4.10;1.43;;;;;;;17.94;68.34;99840.94;5033491;28;20236;-83
2022/09/14 09:34:17;;;;;;;5.97;1.27;;;;;;;18.03;67.77;99829.19;5032804;28;20211;-83
2022/09/14 09:36:46;;;;;;;7.97;1.57;;;;;;;18.10;67.44;99837.44;5033732;28;20617;-83
2022/09/14 09:39:14;;;;;;;6.20;1.40;;;;;;;18.18;67.14;99841.03;5028972;28;20587;-83
2022/09/14 09:41:44;;;;;;;6.40;1.27;;;;;;;18.28;66.88;99847.09;5032629;28;20234;-83
2022/09/14 09:44:11;;;;;;;3.70;1.20;;;;;;;18.37;66.62;99840.72;5033482;28;20201;-83
2022/09/14 09:46:39;;;;;;;4.77;1.03;;;;;;;18.44;65.90;99845.44;5032188;28;20326;-83
2022/09/14 09:49:18;;;;;;;5.47;1.40;;;;;;;18.48;65.27;99844.94;5031894;28;20682;-83
2022/09/14 09:51:45;;;;;;;7.10;1.50;;;;;;;18.53;65.30;99836.34;5031813;28;20254;-84
2022/09/14 09:54:23;;;;;;;6.60;1.57;;;;;;;18.59;64.97;99833.88;5032433;28;20212;-84
2022/09/14 09:56:53;;;;;;;4.43;1.17;;;;;;;18.66;64.48;99836.72;5032140;28;20232;-85
2022/09/14 09:59:29;;;;;;;4.43;0.90;;;;;;;18.71;64.19;99818.16;5031915;28;20206;-84
2022/09/14 10:01:56;;;;;;;3.23;1.20;;;;;;;18.78;63.49;99815.66;5032120;28;20242;-83
2022/09/14 10:04:27;;;;;;;6.33;0.97;;;;;;;18.82;62.70;99812.41;5030340;28;20232;-84
2022/09/14 10:06:56;;;;;;;7.83;1.17;;;;;;;18.84;62.24;99813.09;5031527;28;20205;-84
2022/09/14 10:09:25;;;;;;;5.00;1.27;;;;;;;18.90;61.72;99807.03;5032947;28;20268;-84
2022/09/14 10:11:58;;;;;;;4.63;1.20;;;;;;;18.93;61.22;99806.69;5034282;28;20233;-83
2022/09/14 10:14:30;;;;;;;3.30;0.90;;;;;;;19.00;60.67;99821.16;5038240;28;20796;-84
2022/09/14 10:17:05;;;;;;;6.37;1.10;;;;;;;19.04;60.42;99837.88;5034366;28;20270;-85
2022/09/14 10:19:34;;;;;;;3.50;0.90;;;;;;;19.11;60.13;99843.44;5036131;28;20205;-84
2022/09/14 10:22:03;;;;;;;5.17;1.13;;;;;;;19.16;59.11;99839.22;5033026;28;20339;-84
2022/09/14 10:24:31;;;;;;;4.63;1.13;;;;;;;19.19;59.20;99841.53;5034305;28;20216;-86
2022/09/14 10:26:58;;;;;;;6.03;1.33;;;;;;;19.28;59.24;99839.69;5032288;28;20205;-85
2022/09/14 10:29:33;;;;;;;2.13;1.20;;;;;;;19.37;58.91;99830.53;5034093;28;20686;-86
2022/09/14 10:32:06;;;;;;;4.10;1.07;;;;;;;19.46;58.25;99813.28;5033724;28;20232;-86
2022/09/14 10:34:34;;;;;;;5.40;1.10;;;;;;;19.48;57.76;99811.25;5041690;28;20198;-86
2022/09/14 10:37:13;;;;;;;4.63;1.23;;;;;;;19.50;57.35;99816.53;5035907;28;20214;-85
2022/09/14 10:39:46;;;;;;;3.17;1.00;;;;;;;19.54;57.14;99805.19;5041763;28;20204;-86
2022/09/14 10:42:23;;;;;;;3.67;1.20;;;;;;;19.59;57.36;99801.97;5036944;28;20219;-85
2022/09/14 10:45:04;;;;;;;4.33;1.67;;;;;;;19.63;57.38;99792.50;5035119;28;20195;-86
2022/09/14 10:48:07;;;;;;;4.23;1.30;;;;;;;19.67;57.70;99789.28;5040793;28;20208;-85
2022/09/14 10:50:47;;;;;;;4.67;1.20;;;;;;;19.66;57.60;99787.59;5012173;28;20229;-85
2022/09/14 10:53:29;;;;;;;3.77;1.17;;;;;;;19.64;57.35;99792.31;5035069;28;20673;-85
2022/09/14 10:56:02;;;;;;;4.83;1.37;;;;;;;19.66;57.24;99797.56;5037242;28;20199;-86
2022/09/14 10:58:56;;;;;;;3.27;1.00;;;;;;;19.65;57.17;99798.56;5040384;28;20247;-85
2022/09/14 11:01:34;;;;;;;3.23;0.90;;;;;;;19.68;57.29;99803.63;5034680;28;20223;-86
2022/09/14 11:04:17;;;;;;;4.37;1.10;;;;;;;19.73;57.32;99799.34;5036163;28;20204;-84
2022/09/14 11:06:57;;;;;;;4.50;1.00;;;;;;;19.77;57.14;99805.25;5033431;28;20231;-85
2022/09/14 11:09:29;;;;;;;3.70;1.00;;;;;;;19.78;56.44;99790.72;5030168;28;20757;-84
2022/09/14 11:12:06;;;;;;;4.87;0.80;;;;;;;19.80;56.00;99787.84;5032831;28;20258;-85
2022/09/14 11:14:50;;;;;;;3.53;1.00;;;;;;;19.81;55.65;99784.13;5035631;28;20274;-86
2022/09/14 11:17:46;;;;;;;3.37;0.73;;;;;;;19.83;55.18;99782.94;5036473;28;20573;-86
2022/09/14 11:20:24;;;;;;;2.73;0.90;;;;;;;19.85;54.92;99780.06;5031047;28;20216;-85
2022/09/14 11:23:00;;;;;;;3.43;0.80;;;;;;;19.85;54.70;99772.78;5034706;28;20209;-85
2022/09/14 11:25:34;;;;;;;6.90;1.00;;;;;;;19.85;54.36;99766.53;5033547;28;20220;-84
2022/09/14 11:28:05;;;;;;;3.70;0.90;;;;;;;19.86;54.40;99776.34;5031370;28;20667;-84
2022/09/14 11:30:38;;;;;;;3.03;1.03;;;;;;;19.90;54.15;99778.47;5024745;28;20715;-85
2022/09/14 11:33:10;;;;;;;5.87;1.20;;;;;;;19.93;54.36;99775.44;5031850;28;20301;-85
2022/09/14 11:35:42;;;;;;;3.70;1.03;;;;;;;19.99;54.34;99784.69;5032806;28;20210;-85
2022/09/14 11:38:16;;;;;;;1.63;0.87;;;;;;;20.00;54.34;99779.13;5035582;28;20206;-86
2022/09/14 11:40:47;;;;;;;4.23;1.07;;;;;;;20.01;54.13;99775.41;5038813;28;20608;-85
2022/09/14 11:43:18;;;;;;;4.87;0.87;;;;;;;20.01;54.39;99772.69;5034534;28;20217;-84
2022/09/14 11:45:48;;;;;;;6.27;1.40;;;;;;;20.03;54.55;99777.91;5032463;28;20623;-87